Time;durP1;ratioP1;P1;durP2;ratioP2;P2;SDS_P1;SDS_P2;PMS_P1;PMS_P2;Temp;Humidity;BMP_temperature;BMP_pressure;BME280_temperature;BME280_humidity;BME280_pressure;Samples;Min_cycle;Max_cycle;Signal;HPM_P1;HPM_P2
2023/04/22 00:02:13;;;;;;;6.77;6.17;;;;;;;9.47;100.00;99465.81;5018704;28;20647;-67
2023/04/22 00:04:40;;;;;;;7.93;6.00;;;;;;;9.56;100.00;99467.00;5011617;28;20237;-68
2023/04/22 00:07:05;;;;;;;6.30;5.50;;;;;;;9.61;100.00;99468.38;5013882;28;20699;-68
2023/04/22 00:09:31;;;;;;;6.70;6.00;;;;;;;9.59;100.00;99465.06;5011738;28;20195;-68
2023/04/22 00:11:57;;;;;;;6.40;5.80;;;;;;;9.59;100.00;99457.38;5013501;28;20229;-68
2023/04/22 00:14:23;;;;;;;8.43;5.53;;;;;;;9.49;100.00;99464.00;5008080;28;20179;-69
2023/04/22 00:16:48;;;;;;;6.20;5.67;;;;;;;9.49;100.00;99462.25;5023237;28;20554;-69
2023/04/22 00:19:13;;;;;;;6.13;5.53;;;;;;;9.51;100.00;99459.56;5006739;28;20662;-69
2023/04/22 00:21:39;;;;;;;6.10;5.50;;;;;;;9.56;100.00;99462.69;5024112;28;20218;-69
2023/04/22 00:24:05;;;;;;;6.60;6.00;;;;;;;9.48;100.00;99452.88;5017390;28;20211;-69
2023/04/22 00:26:30;;;;;;;7.63;6.00;;;;;;;9.52;100.00;99456.91;5011843;28;20634;-69
2023/04/22 00:28:56;;;;;;;6.77;5.67;;;;;;;9.55;100.00;99452.50;5011759;28;20191;-68
2023/04/22 00:31:21;;;;;;;5.63;5.13;;;;;;;9.56;100.00;99449.03;5022023;28;20248;-67
2023/04/22 00:33:46;;;;;;;6.27;5.37;;;;;;;9.57;100.00;99450.69;5017557;28;20228;-68
2023/04/22 00:36:12;;;;;;;6.13;5.43;;;;;;;9.52;100.00;99450.97;5019779;28;20186;-69
2023/04/22 00:38:37;;;;;;;5.43;4.93;;;;;;;9.53;100.00;99444.91;5019146;28;20241;-68
2023/04/22 00:41:03;;;;;;;6.20;5.60;;;;;;;9.58;100.00;99442.06;5014304;28;20256;-70
2023/04/22 00:43:29;;;;;;;5.90;5.30;;;;;;;9.59;100.00;99443.69;5032962;28;20182;-68
2023/04/22 00:45:56;;;;;;;6.50;5.77;;;;;;;9.59;100.00;99446.25;5031597;28;20189;-68
2023/04/22 00:48:23;;;;;;;6.27;5.67;;;;;;;9.58;100.00;99439.50;5019140;28;20175;-71
2023/04/22 00:50:48;;;;;;;10.40;5.73;;;;;;;9.55;100.00;99442.25;5008447;28;20238;-70
2023/04/22 00:53:14;;;;;;;6.50;5.90;;;;;;;9.52;100.00;99449.19;5019969;28;20186;-69
2023/04/22 00:55:39;;;;;;;8.37;6.23;;;;;;;9.51;100.00;99452.72;5024366;28;20562;-69
2023/04/22 00:58:05;;;;;;;7.10;5.87;;;;;;;9.49;100.00;99451.97;5018825;28;20640;-69
2023/04/22 01:00:31;;;;;;;7.00;6.07;;;;;;;9.46;100.00;99448.75;5019680;28;20273;-69
2023/04/22 01:02:57;;;;;;;7.83;6.30;;;;;;;9.47;100.00;99452.97;5017448;28;20256;-69
2023/04/22 01:05:23;;;;;;;9.20;6.73;;;;;;;9.45;100.00;99452.25;5023775;28;20652;-69
2023/04/22 01:07:49;;;;;;;8.73;7.00;;;;;;;9.44;100.00;99445.44;5018623;28;20242;-68
2023/04/22 01:10:15;;;;;;;7.87;6.83;;;;;;;9.45;100.00;99442.81;5009519;28;20174;-68
2023/04/22 01:12:40;;;;;;;11.37;7.63;;;;;;;9.41;100.00;99445.66;5034294;28;20193;-68
2023/04/22 01:15:07;;;;;;;9.37;7.27;;;;;;;9.41;100.00;99443.91;5021964;28;20186;-69
2023/04/22 01:17:32;;;;;;;10.00;8.27;;;;;;;9.32;100.00;99441.91;5018317;28;20191;-68
2023/04/22 01:19:58;;;;;;;10.37;7.23;;;;;;;9.23;100.00;99445.84;5011219;28;20174;-69
2023/04/22 01:22:25;;;;;;;9.33;8.27;;;;;;;9.20;100.00;99446.84;5031922;28;20221;-68
2023/04/22 01:24:50;;;;;;;8.77;7.97;;;;;;;9.25;100.00;99440.59;5024853;28;20182;-68
2023/04/22 01:27:15;;;;;;;8.97;7.63;;;;;;;9.22;100.00;99439.06;5011946;28;20274;-68
2023/04/22 01:29:41;;;;;;;9.60;8.60;;;;;;;9.26;100.00;99439.69;5011566;28;20218;-69
2023/04/22 01:32:06;;;;;;;9.57;8.07;;;;;;;9.27;100.00;99447.28;5017580;28;21027;-69
2023/04/22 01:34:31;;;;;;;10.27;9.20;;;;;;;9.28;100.00;99441.25;5026382;28;20194;-69
2023/04/22 01:36:57;;;;;;;9.90;8.17;;;;;;;9.31;100.00;99446.19;5011706;28;20183;-69
2023/04/22 01:39:22;;;;;;;9.43;8.43;;;;;;;9.28;100.00;99441.25;5011186;28;20218;-68
2023/04/22 01:41:48;;;;;;;10.63;8.77;;;;;;;9.29;100.00;99442.06;5020170;28;20226;-68
2023/04/22 01:44:13;;;;;;;9.27;7.83;;;;;;;9.32;100.00;99441.91;5007520;28;20191;-69
2023/04/22 01:46:39;;;;;;;11.43;8.93;;;;;;;9.32;100.00;99439.34;5007642;28;20563;-69
2023/04/22 01:49:04;;;;;;;9.63;8.70;;;;;;;9.36;100.00;99440.78;5011403;28;20221;-69
2023/04/22 01:51:30;;;;;;;10.40;9.37;;;;;;;9.42;100.00;99434.47;5013200;28;20317;-68
2023/04/22 01:53:55;;;;;;;9.17;8.10;;;;;;;9.44;100.00;99436.03;5016605;28;20178;-68
2023/04/22 01:56:21;;;;;;;11.07;9.77;;;;;;;9.49;100.00;99446.84;5013963;28;20240;-69
2023/04/22 01:58:46;;;;;;;10.27;8.87;;;;;;;9.54;100.00;99441.44;5015423;28;20548;-67
2023/04/22 02:01:12;;;;;;;12.37;9.60;;;;;;;9.60;100.00;99433.34;5014516;28;20299;-69
2023/04/22 02:03:37;;;;;;;11.50;10.17;;;;;;;9.57;100.00;99440.41;5022126;28;20183;-69
2023/04/22 02:06:03;;;;;;;10.43;9.30;;;;;;;9.58;100.00;99442.06;5015202;28;20253;-70
2023/04/22 02:08:28;;;;;;;11.87;8.50;;;;;;;9.59;100.00;99439.41;5015306;28;20225;-70
2023/04/22 02:10:53;;;;;;;10.40;9.13;;;;;;;9.55;100.00;99439.69;5023292;28;20579;-70
2023/04/22 02:13:19;;;;;;;10.33;9.33;;;;;;;9.57;100.00;99438.66;5024172;28;20178;-69
2023/04/22 02:15:44;;;;;;;10.57;9.00;;;;;;;9.57;100.00;99432.72;5015290;28;20261;-70
2023/04/22 02:18:09;;;;;;;9.80;8.80;;;;;;;9.57;100.00;99433.53;5014835;28;20401;-69
2023/04/22 02:20:35;;;;;;;10.83;8.97;;;;;;;9.56;100.00;99433.63;5008409;28;20234;-68
2023/04/22 02:23:01;;;;;;;10.43;9.13;;;;;;;9.56;100.00;99434.44;5043490;28;20505;-68
2023/04/22 02:25:27;;;;;;;11.63;8.67;;;;;;;9.49;100.00;99430.63;5015048;28;20244;-69
2023/04/22 02:27:52;;;;;;;9.83;8.83;;;;;;;9.45;100.00;99432.53;5015110;28;20266;-69
2023/04/22 02:30:17;;;;;;;11.47;8.90;;;;;;;9.43;100.00;99439.50;5006355;28;20258;-70
2023/04/22 02:32:43;;;;;;;12.67;9.13;;;;;;;9.43;100.00;99441.25;5029239;28;20555;-69
2023/04/22 02:35:10;;;;;;;9.00;8.20;;;;;;;9.46;100.00;99436.75;5030439;28;20179;-68
2023/04/22 02:37:35;;;;;;;10.40;8.90;;;;;;;9.47;100.00;99443.53;5014791;28;20191;-69
2023/04/22 02:40:00;;;;;;;10.73;9.73;;;;;;;9.38;100.00;99438.97;5030294;28;20186;-68
2023/04/22 02:42:26;;;;;;;9.30;8.50;;;;;;;9.46;100.00;99441.06;5020589;28;20219;-69
2023/04/22 02:44:51;;;;;;;10.90;9.80;;;;;;;9.48;100.00;99437.47;5030475;28;20182;-69
2023/04/22 02:47:16;;;;;;;10.77;8.40;;;;;;;9.51;100.00;99439.88;5015042;28;20970;-68
2023/04/22 02:49:41;;;;;;;11.30;9.03;;;;;;;9.48;100.00;99440.03;5013693;28;20574;-69
2023/04/22 02:52:07;;;;;;;10.30;9.30;;;;;;;9.53;100.00;99445.72;5018890;28;20217;-69
2023/04/22 02:54:32;;;;;;;11.07;9.20;;;;;;;9.47;100.00;99450.41;5013531;28;20187;-68
2023/04/22 02:56:57;;;;;;;11.17;9.00;;;;;;;9.47;100.00;99450.41;5013508;28;20526;-69
2023/04/22 02:59:23;;;;;;;10.00;8.87;;;;;;;9.45;100.00;99450.53;5012859;28;20202;-68
2023/04/22 03:01:48;;;;;;;10.10;9.10;;;;;;;9.44;100.00;99448.03;5006459;28;20280;-68
2023/04/22 03:04:14;;;;;;;10.47;8.93;;;;;;;9.28;100.00;99440.41;5016019;28;20237;-68
2023/04/22 03:06:39;;;;;;;10.73;9.67;;;;;;;9.33;100.00;99446.13;5013172;28;20182;-69
2023/04/22 03:09:05;;;;;;;9.40;8.50;;;;;;;9.33;100.00;99444.38;5012832;28;20209;-68
2023/04/22 03:11:30;;;;;;;9.40;8.57;;;;;;;9.29;100.00;99444.63;5021531;28;20317;-68
2023/04/22 03:13:55;;;;;;;11.60;9.07;;;;;;;9.26;100.00;99440.50;5017865;28;20273;-68
2023/04/22 03:16:22;;;;;;;10.23;9.07;;;;;;;9.20;100.00;99435.75;5013181;28;20220;-68
2023/04/22 03:18:48;;;;;;;9.70;8.80;;;;;;;9.22;100.00;99430.53;5017808;28;20289;-68
2023/04/22 03:21:14;;;;;;;11.80;9.73;;;;;;;9.12;100.00;99435.38;5015510;28;20304;-68
2023/04/22 03:23:39;;;;;;;10.17;9.17;;;;;;;9.08;100.00;99432.19;5037774;28;20226;-68
2023/04/22 03:26:05;;;;;;;9.73;8.70;;;;;;;9.08;100.00;99437.31;5028581;28;20185;-68
2023/04/22 03:28:30;;;;;;;10.13;9.20;;;;;;;9.00;100.00;99439.50;5022392;28;20178;-68
2023/04/22 03:30:56;;;;;;;16.30;10.37;;;;;;;9.07;100.00;99435.66;4983843;28;20245;-68
2023/04/22 03:33:21;;;;;;;10.13;9.13;;;;;;;8.96;100.00;99435.47;5027628;28;20182;-68
2023/04/22 03:35:48;;;;;;;10.37;9.27;;;;;;;8.99;100.00;99436.13;5014599;28;20178;-68
2023/04/22 03:38:13;;;;;;;10.97;9.87;;;;;;;8.94;100.00;99435.53;5023026;28;20198;-70
2023/04/22 03:40:39;;;;;;;10.97;9.60;;;;;;;9.04;100.00;99434.09;5009592;28;20225;-69
2023/04/22 03:43:04;;;;;;;9.60;8.40;;;;;;;9.09;100.00;99428.69;5013442;28;20183;-69
2023/04/22 03:45:29;;;;;;;10.33;8.63;;;;;;;9.07;100.00;99430.53;5024942;28;20245;-69
2023/04/22 03:47:55;;;;;;;9.80;8.70;;;;;;;9.11;100.00;99431.97;5022318;28;20296;-69
2023/04/22 03:50:20;;;;;;;11.00;9.40;;;;;;;9.11;100.00;99439.69;4980187;28;1046091;-69
2023/04/22 03:52:45;;;;;;;11.23;9.33;;;;;;;9.12;100.00;99441.34;5033803;28;20193;-70
2023/04/22 03:55:11;;;;;;;10.80;9.80;;;;;;;9.03;100.00;99440.13;5019477;28;20245;-69
2023/04/22 03:57:36;;;;;;;10.23;9.10;;;;;;;9.02;100.00;99438.47;5013144;28;20668;-69
2023/04/22 04:00:01;;;;;;;10.50;9.40;;;;;;;9.00;100.00;99436.94;5012524;28;20206;-69
2023/04/22 04:02:26;;;;;;;12.87;9.53;;;;;;;8.98;100.00;99426.75;5018121;28;20257;-67
2023/04/22 04:04:51;;;;;;;10.77;9.77;;;;;;;8.99;100.00;99430.97;5026561;28;20567;-69
2023/04/22 04:07:19;;;;;;;10.07;9.07;;;;;;;8.99;100.00;99427.56;5032977;28;20186;-68
2023/04/22 04:09:44;;;;;;;10.13;9.13;;;;;;;8.94;100.00;99430.41;5018537;28;20696;-70
2023/04/22 04:12:09;;;;;;;9.53;8.53;;;;;;;8.91;100.00;99429.78;5021395;28;20222;-69
2023/04/22 04:14:34;;;;;;;9.80;8.90;;;;;;;8.86;100.00;99424.91;5024862;28;20562;-69
2023/04/22 04:17:00;;;;;;;10.63;9.47;;;;;;;8.81;100.00;99434.63;5012893;28;20186;-69
2023/04/22 04:19:25;;;;;;;12.37;9.60;;;;;;;8.73;100.00;99432.47;5011755;28;20200;-69
2023/04/22 04:21:51;;;;;;;10.63;9.23;;;;;;;8.64;100.00;99438.16;5025220;28;20587;-69
2023/04/22 04:24:16;;;;;;;11.00;9.87;;;;;;;8.54;100.00;99430.97;5047144;28;20182;-69
2023/04/22 04:26:41;;;;;;;11.80;9.97;;;;;;;8.50;100.00;99428.69;5030876;28;20178;-69
2023/04/22 04:29:07;;;;;;;9.60;8.67;;;;;;;8.54;100.00;99430.97;5016882;28;20260;-69
2023/04/22 04:31:32;;;;;;;11.73;9.83;;;;;;;8.55;100.00;99436.94;5021046;28;20755;-69
2023/04/22 04:33:58;;;;;;;10.10;9.10;;;;;;;8.49;100.00;99443.22;5016027;28;20258;-68
2023/04/22 04:36:27;;;;;;;12.03;9.27;;;;;;;8.58;100.00;99441.06;5023884;28;20264;-69
2023/04/22 04:38:53;;;;;;;10.70;9.70;;;;;;;8.64;100.00;99433.00;5018200;28;20207;-70
2023/04/22 04:41:20;;;;;;;10.60;9.60;;;;;;;8.57;100.00;99432.56;5021322;28;20252;-70
2023/04/22 04:43:46;;;;;;;9.90;8.50;;;;;;;8.69;100.00;99425.88;5030645;28;20174;-68
2023/04/22 04:46:12;;;;;;;11.63;10.53;;;;;;;8.72;100.00;99429.09;5031528;28;20178;-69
2023/04/22 04:48:41;;;;;;;12.03;9.97;;;;;;;8.71;100.00;99424.06;5027578;28;20178;-68
2023/04/22 04:51:07;;;;;;;10.47;9.40;;;;;;;8.78;100.00;99421.97;5020240;28;20668;-69
2023/04/22 04:53:32;;;;;;;9.70;8.70;;;;;;;8.78;100.00;99409.97;5007356;28;20269;-69
2023/04/22 04:55:57;;;;;;;14.67;9.90;;;;;;;8.82;100.00;99413.16;5021175;28;20182;-69
2023/04/22 04:58:22;;;;;;;11.33;10.13;;;;;;;8.85;100.00;99411.25;5027450;28;20280;-70
2023/04/22 05:00:47;;;;;;;10.67;9.60;;;;;;;8.86;100.00;99417.22;5006707;28;20719;-69
2023/04/22 05:03:13;;;;;;;11.57;10.37;;;;;;;8.83;100.00;99410.53;5025323;28;20269;-70
2023/04/22 05:05:38;;;;;;;12.47;10.00;;;;;;;8.80;100.00;99417.56;5031104;28;20189;-69
2023/04/22 05:08:04;;;;;;;10.60;9.60;;;;;;;8.74;100.00;99423.06;5028257;28;20186;-69
2023/04/22 05:10:29;;;;;;;11.20;10.10;;;;;;;8.78;100.00;99429.66;5005035;28;20230;-69
2023/04/22 05:12:54;;;;;;;11.27;10.27;;;;;;;8.80;100.00;99431.22;5016365;28;20202;-69
2023/04/22 05:15:20;;;;;;;10.83;9.73;;;;;;;8.77;100.00;99438.25;5022892;28;20182;-69
2023/04/22 05:17:45;;;;;;;11.37;9.10;;;;;;;8.77;100.00;99446.78;5023963;28;20182;-69
2023/04/22 05:20:10;;;;;;;13.57;10.10;;;;;;;8.97;100.00;99445.63;5001317;28;20178;-69
2023/04/22 05:22:36;;;;;;;10.83;9.77;;;;;;;9.12;100.00;99441.34;5025978;28;20206;-69
2023/04/22 05:25:05;;;;;;;11.13;10.10;;;;;;;9.38;100.00;99444.09;5027265;28;20193;-68
2023/04/22 05:27:30;;;;;;;10.67;9.57;;;;;;;9.64;100.00;99442.50;5010521;28;20245;-67
2023/04/22 05:29:55;;;;;;;12.90;9.93;;;;;;;9.76;100.00;99437.53;5011396;28;20221;-68
2023/04/22 05:32:20;;;;;;;10.63;9.53;;;;;;;9.83;100.00;99437.06;5001396;28;20233;-68
2023/04/22 05:34:46;;;;;;;11.10;9.00;;;;;;;9.98;100.00;99449.88;5012062;28;20557;-68
2023/04/22 05:37:11;;;;;;;12.20;9.80;;;;;;;10.11;100.00;99457.63;5010523;28;20190;-69
2023/04/22 05:39:36;;;;;;;10.13;9.13;;;;;;;10.19;100.00;99450.28;5026566;28;20261;-68
2023/04/22 05:42:02;;;;;;;9.87;8.80;;;;;;;10.26;100.00;99464.38;5017125;28;20229;-68
2023/04/22 05:44:27;;;;;;;11.10;9.43;;;;;;;10.18;100.00;99458.88;5011978;28;20183;-69
2023/04/22 05:46:52;;;;;;;9.50;8.40;;;;;;;10.24;100.00;99467.97;5011954;28;20189;-68
2023/04/22 05:49:18;;;;;;;12.07;9.13;;;;;;;10.33;100.00;99472.53;5011329;28;20258;-69
2023/04/22 05:51:43;;;;;;;10.27;9.10;;;;;;;10.52;100.00;99469.66;5013296;28;20248;-69
2023/04/22 05:54:08;;;;;;;10.20;8.97;;;;;;;10.61;100.00;99460.50;5009847;28;20244;-69
2023/04/22 05:56:33;;;;;;;9.93;8.93;;;;;;;10.97;100.00;99459.00;5028842;28;20182;-69
2023/04/22 05:58:59;;;;;;;13.03;9.73;;;;;;;11.36;100.00;99452.13;5030054;28;20673;-69
2023/04/22 06:01:24;;;;;;;9.33;8.43;;;;;;;11.70;100.00;99442.06;5016610;28;20237;-69
2023/04/22 06:03:50;;;;;;;9.80;8.60;;;;;;;11.81;100.00;99436.16;5014381;28;20185;-69
2023/04/22 06:06:15;;;;;;;12.43;8.50;;;;;;;11.77;100.00;99432.97;5011656;28;20197;-68
2023/04/22 06:08:41;;;;;;;8.97;8.07;;;;;;;11.75;100.00;99434.81;5024048;28;20182;-70
2023/04/22 06:11:06;;;;;;;9.83;8.37;;;;;;;12.15;100.00;99438.13;5002281;28;20245;-69
2023/04/22 06:13:31;;;;;;;11.43;8.90;;;;;;;12.31;100.00;99443.81;5018500;28;20185;-69
2023/04/22 06:15:57;;;;;;;9.53;7.67;;;;;;;12.59;100.00;99442.63;5011045;28;20194;-68
2023/04/22 06:18:22;;;;;;;9.93;7.50;;;;;;;12.75;100.00;99441.47;5011250;28;20661;-68
2023/04/22 06:20:47;;;;;;;9.97;6.97;;;;;;;12.96;100.00;99441.66;5007004;28;20237;-69
2023/04/22 06:23:12;;;;;;;9.63;7.77;;;;;;;13.00;100.00;99444.81;5026375;28;20692;-69
2023/04/22 06:25:38;;;;;;;9.00;7.77;;;;;;;12.76;100.00;99450.88;5011393;28;20248;-69
2023/04/22 06:28:03;;;;;;;9.20;7.37;;;;;;;12.66;100.00;99444.75;5026356;28;20182;-69
2023/04/22 06:30:28;;;;;;;7.63;6.80;;;;;;;12.77;100.00;99443.97;5003612;28;20225;-69
2023/04/22 06:32:55;;;;;;;9.00;7.13;;;;;;;12.95;100.00;99436.59;5043976;28;20574;-68
2023/04/22 06:35:20;;;;;;;10.20;6.90;;;;;;;13.22;100.00;99434.50;5017959;28;20602;-68
2023/04/22 06:37:47;;;;;;;7.67;6.97;;;;;;;13.92;100.00;99434.34;5026304;28;20175;-67
2023/04/22 06:40:14;;;;;;;7.57;6.87;;;;;;;14.50;100.00;99435.78;5001234;28;20262;-68
2023/04/22 06:42:39;;;;;;;7.80;7.00;;;;;;;15.16;100.00;99440.69;5021270;28;20182;-67
2023/04/22 06:45:05;;;;;;;8.60;6.63;;;;;;;16.58;100.00;99431.94;5033020;28;20201;-67
2023/04/22 06:47:30;;;;;;;6.53;5.53;;;;;;;18.44;99.67;99428.41;5034835;28;20622;-68
2023/04/22 06:49:56;;;;;;;5.37;4.70;;;;;;;19.10;91.99;99425.44;5014381;28;20231;-68
2023/04/22 06:52:21;;;;;;;8.43;4.87;;;;;;;20.92;75.49;99421.31;5020834;28;20630;-71
2023/04/22 06:54:46;;;;;;;6.27;4.47;;;;;;;22.24;61.97;99425.88;5029991;28;20563;-68
2023/04/22 06:57:11;;;;;;;5.00;3.87;;;;;;;23.07;57.88;99433.78;5015501;28;20581;-66
2023/04/22 06:59:37;;;;;;;4.30;3.90;;;;;;;22.36;56.15;99439.34;5013971;28;20202;-68
2023/04/22 07:02:02;;;;;;;4.55;4.15;;;;;;;22.15;63.11;99438.19;5008538;28;20700;-67
2023/04/22 07:04:28;;;;;;;7.20;4.88;;;;;;;23.38;52.79;99448.50;5020802;28;20303;-68
2023/04/22 07:06:53;;;;;;;7.10;5.38;;;;;;;24.16;48.55;99440.06;5019554;28;20187;-68
2023/04/22 07:09:19;;;;;;;6.63;4.45;;;;;;;23.57;49.33;99435.81;5014784;28;20619;-68
2023/04/22 07:11:46;;;;;;;7.95;4.43;;;;;;;23.39;50.36;99441.47;5015990;28;20307;-68
2023/04/22 07:14:11;;;;;;;8.27;5.22;;;;;;;23.18;51.78;99443.03;5017533;28;20179;-68
2023/04/22 07:16:37;;;;;;;8.77;4.38;;;;;;;23.05;50.20;99444.44;5023787;28;20232;-67
2023/04/22 07:19:04;;;;;;;18.15;7.82;;;;;;;24.04;46.95;99445.03;5018056;28;20202;-68
2023/04/22 07:21:31;;;;;;;11.27;5.38;;;;;;;24.11;47.74;99434.56;5021885;28;20232;-68
2023/04/22 07:23:56;;;;;;;12.90;4.50;;;;;;;23.82;46.55;99425.78;5037729;28;20202;-68
2023/04/22 07:26:22;;;;;;;9.77;4.57;;;;;;;23.44;48.28;99434.66;5009631;28;20202;-68
2023/04/22 07:28:47;;;;;;;10.80;4.40;;;;;;;23.45;48.10;99431.03;5006899;28;20186;-67
2023/04/22 07:31:12;;;;;;;11.25;4.40;;;;;;;23.50;49.30;99420.00;4985582;28;20222;-67
2023/04/22 07:33:38;;;;;;;13.05;3.97;;;;;;;24.07;47.18;99418.38;5007067;28;20237;-68
2023/04/22 07:36:03;;;;;;;14.73;4.40;;;;;;;23.87;45.67;99417.38;5014049;28;20264;-69
2023/04/22 07:38:29;;;;;;;16.75;4.60;;;;;;;25.30;42.80;99423.25;5021021;28;20205;-68
2023/04/22 07:40:54;;;;;;;10.75;4.38;;;;;;;23.53;45.58;99420.44;5018237;28;20250;-67
2023/04/22 07:43:19;;;;;;;5.47;3.60;;;;;;;23.53;47.83;99412.56;5028735;28;20226;-67
2023/04/22 07:45:44;;;;;;;4.95;3.88;;;;;;;23.97;45.82;99425.75;5032136;28;20186;-67
2023/04/22 07:48:10;;;;;;;5.82;3.42;;;;;;;25.14;42.41;99419.13;5020127;28;20186;-68
2023/04/22 07:50:35;;;;;;;8.30;6.05;;;;;;;26.76;38.54;99424.66;5008780;28;20264;-67
2023/04/22 07:53:00;;;;;;;5.07;3.85;;;;;;;28.03;36.46;99426.72;5035545;28;20633;-68
2023/04/22 07:55:26;;;;;;;5.93;3.88;;;;;;;27.73;35.49;99432.59;5013102;28;20220;-67
2023/04/22 07:57:51;;;;;;;4.57;3.63;;;;;;;28.18;35.26;99431.72;5013067;28;20245;-68
2023/04/22 08:00:16;;;;;;;5.00;4.40;;;;;;;27.27;36.11;99425.72;5003743;28;20170;-68
2023/04/22 08:02:42;;;;;;;4.90;4.43;;;;;;;26.23;37.88;99428.94;5028158;28;20183;-68
2023/04/22 08:05:08;;;;;;;5.00;4.40;;;;;;;24.74;42.64;99426.78;5026229;28;20931;-67
2023/04/22 08:07:33;;;;;;;5.55;4.95;;;;;;;25.17;42.99;99423.19;5013128;28;20201;-68
2023/04/22 08:09:58;;;;;;;5.05;4.55;;;;;;;25.53;43.12;99416.84;5012310;28;20417;-68
2023/04/22 08:12:24;;;;;;;4.90;4.47;;;;;;;25.30;43.46;99412.72;5015058;28;20221;-68
2023/04/22 08:14:49;;;;;;;5.35;4.90;;;;;;;24.94;44.43;99410.31;5023675;28;20185;-68
2023/04/22 08:17:15;;;;;;;5.00;4.60;;;;;;;25.08;44.92;99416.44;5014042;28;20186;-69
2023/04/22 08:19:40;;;;;;;6.03;4.80;;;;;;;25.70;44.37;99412.03;5024597;28;20671;-69
2023/04/22 08:22:05;;;;;;;5.55;5.05;;;;;;;25.07;44.92;99413.00;5023495;28;20217;-67
2023/04/22 08:24:31;;;;;;;5.50;5.05;;;;;;;24.43;47.83;99414.81;5014567;28;20178;-69
2023/04/22 08:26:56;;;;;;;6.00;5.03;;;;;;;24.55;47.89;99414.28;5014368;28;20276;-68
2023/04/22 08:29:22;;;;;;;6.03;5.53;;;;;;;23.10;52.77;99415.06;5023497;28;20189;-68
2023/04/22 08:31:47;;;;;;;6.22;5.35;;;;;;;23.01;56.62;99409.09;5032036;28;20991;-67
2023/04/22 08:34:12;;;;;;;5.68;5.18;;;;;;;23.13;56.62;99411.25;5035131;28;20657;-66
2023/04/22 08:36:38;;;;;;;6.10;5.60;;;;;;;24.26;51.70;99406.41;5028972;28;20205;-66
2023/04/22 08:39:03;;;;;;;5.72;5.10;;;;;;;24.88;49.43;99404.03;5017353;28;20252;-67
2023/04/22 08:41:32;;;;;;;7.05;5.55;;;;;;;23.62;55.38;99401.97;5025950;28;20225;-66
2023/04/22 08:43:58;;;;;;;5.43;5.00;;;;;;;24.16;51.57;99406.75;5016855;28;20182;-65
2023/04/22 08:46:24;;;;;;;8.65;6.05;;;;;;;22.85;57.59;99406.66;5025291;28;20191;-67
2023/04/22 08:48:50;;;;;;;7.30;5.57;;;;;;;22.99;63.41;99402.41;5024631;28;20197;-65
2023/04/22 08:51:16;;;;;;;6.57;5.90;;;;;;;22.23;69.80;99403.28;5015759;28;20592;-65
2023/04/22 08:53:43;;;;;;;6.28;5.70;;;;;;;21.01;76.76;99402.00;5023384;28;20190;-65
2023/04/22 08:56:11;;;;;;;7.15;6.50;;;;;;;20.86;77.68;99398.44;5015535;28;20199;-66
2023/04/22 08:58:37;;;;;;;9.20;6.47;;;;;;;20.39;87.01;99398.19;5015548;28;20211;-66
2023/04/22 09:01:02;;;;;;;7.03;6.50;;;;;;;20.24;86.43;99392.81;5013063;28;20232;-66
2023/04/22 09:03:28;;;;;;;7.23;6.53;;;;;;;19.95;87.50;99394.09;5025063;28;20211;-65
2023/04/22 09:05:54;;;;;;;7.23;6.70;;;;;;;20.14;86.04;99395.59;5024860;28;20183;-66
2023/04/22 09:08:19;;;;;;;7.80;7.10;;;;;;;19.54;91.86;99388.78;5012423;28;20209;-65
2023/04/22 09:10:45;;;;;;;8.40;6.93;;;;;;;20.70;85.61;99383.59;5006650;28;20309;-66
2023/04/22 09:13:12;;;;;;;6.97;6.37;;;;;;;21.34;80.40;99380.94;5021639;28;20192;-66
2023/04/22 09:15:37;;;;;;;7.37;6.73;;;;;;;21.82;74.97;99380.03;5004551;28;20187;-65
2023/04/22 09:18:04;;;;;;;6.63;6.03;;;;;;;22.02;74.28;99380.38;5008538;28;20189;-66
2023/04/22 09:20:29;;;;;;;8.03;6.60;;;;;;;22.39;69.96;99382.22;4990649;28;20238;-67
2023/04/22 09:22:56;;;;;;;6.73;6.03;;;;;;;23.91;60.42;99372.13;5008341;28;20280;-66
2023/04/22 09:25:25;;;;;;;7.97;6.97;;;;;;;24.39;53.97;99374.16;5011777;28;20175;-66
2023/04/22 09:27:55;;;;;;;7.20;6.53;;;;;;;23.21;55.76;99377.88;5008325;28;20178;-67
2023/04/22 09:30:39;;;;;;;7.47;6.80;;;;;;;23.12;56.23;99380.75;5009051;28;20629;-70
2023/04/22 09:33:06;;;;;;;6.88;6.38;;;;;;;24.48;52.57;99377.44;5007429;28;20187;-66
2023/04/22 09:35:35;;;;;;;7.22;6.63;;;;;;;24.24;51.48;99387.41;5000284;28;20551;-68
2023/04/22 09:38:09;;;;;;;7.57;6.85;;;;;;;25.07;46.98;99383.28;5006879;28;20236;-67
2023/04/22 09:40:36;;;;;;;7.20;6.57;;;;;;;24.45;49.68;99380.47;5008045;28;20269;-67
2023/04/22 09:43:03;;;;;;;7.60;6.53;;;;;;;24.81;51.73;99379.50;5031123;28;20174;-66
2023/04/22 09:45:34;;;;;;;6.75;6.25;;;;;;;26.57;46.04;99385.72;5008005;28;20559;-67
2023/04/22 09:48:10;;;;;;;8.93;6.70;;;;;;;26.35;44.85;99382.50;5016306;28;20697;-67
2023/04/22 09:50:43;;;;;;;6.60;6.10;;;;;;;26.30;43.91;99378.88;5001895;28;20233;-67
2023/04/22 09:53:11;;;;;;;6.60;6.00;;;;;;;27.34;42.80;99382.41;5017974;28;20289;-70
2023/04/22 09:55:40;;;;;;;7.65;6.68;;;;;;;27.54;40.88;99378.88;5011346;28;20257;-66
2023/04/22 09:58:10;;;;;;;7.30;6.60;;;;;;;27.31;41.00;99379.38;5011466;28;20178;-67
2023/04/22 10:00:47;;;;;;;6.18;5.68;;;;;;;28.65;37.23;99378.38;5002719;28;20243;-65
2023/04/22 10:03:13;;;;;;;6.60;6.10;;;;;;;27.76;40.05;99378.53;5020930;28;20261;-66
2023/04/22 10:05:40;;;;;;;7.63;5.72;;;;;;;28.76;38.17;99371.56;5009140;28;20278;-66
2023/04/22 10:08:07;;;;;;;6.97;6.32;;;;;;;28.31;37.13;99369.97;5013297;28;20201;-66
2023/04/22 10:10:33;;;;;;;6.47;5.97;;;;;;;27.37;39.75;99352.13;5004211;28;20331;-66
2023/04/22 10:12:59;;;;;;;6.78;6.10;;;;;;;26.15;42.53;99366.72;5031648;28;20198;-68
2023/04/22 10:15:31;;;;;;;8.45;6.50;;;;;;;24.67;47.60;99347.03;5010713;28;20593;-66
2023/04/22 10:17:57;;;;;;;5.63;5.20;;;;;;;22.49;58.71;99357.53;5022524;28;20646;-66
2023/04/22 10:20:25;;;;;;;7.68;6.50;;;;;;;23.09;57.09;99345.22;5000589;28;20253;-67
2023/04/22 10:22:53;;;;;;;5.63;5.13;;;;;;;24.51;52.81;99348.16;5021111;28;20210;-68
2023/04/22 10:25:24;;;;;;;7.95;5.30;;;;;;;26.16;45.31;99351.69;5014873;28;20305;-67
2023/04/22 10:28:07;;;;;;;5.65;5.15;;;;;;;26.33;43.36;99352.88;5017229;28;20275;-67
2023/04/22 10:30:38;;;;;;;6.38;5.47;;;;;;;27.18;39.69;99345.94;4993988;28;20238;-68
2023/04/22 10:33:30;;;;;;;5.75;4.53;;;;;;;26.69;39.66;99348.16;5012412;28;20199;-67
2023/04/22 10:36:16;;;;;;;5.13;4.65;;;;;;;27.06;38.24;99351.06;5002110;28;20257;-67
2023/04/22 10:39:01;;;;;;;6.50;5.40;;;;;;;24.86;44.88;99334.19;5003371;28;20310;-68
2023/04/22 10:41:32;;;;;;;5.25;4.85;;;;;;;24.95;46.10;99336.44;5000788;28;20226;-66
2023/04/22 10:44:05;;;;;;;4.80;4.40;;;;;;;24.17;55.76;99333.97;5017661;28;20205;-67
2023/04/22 10:46:33;;;;;;;4.50;4.10;;;;;;;24.41;52.75;99329.28;5010154;28;20206;-67
2023/04/22 10:49:06;;;;;;;5.40;4.45;;;;;;;23.38;50.63;99325.19;5003414;28;20194;-67
2023/04/22 10:51:41;;;;;;;6.55;4.57;;;;;;;22.63;61.49;99327.13;5015583;28;20236;-67
2023/04/22 10:54:36;;;;;;;6.35;4.57;;;;;;;22.33;61.48;99321.84;5016046;28;20178;-68
2023/04/22 10:57:04;;;;;;;4.40;4.00;;;;;;;21.90;64.77;99319.75;5015639;28;20187;-66
2023/04/22 10:59:31;;;;;;;5.78;3.33;;;;;;;22.22;64.10;99313.41;5013595;28;20210;-64
2023/04/22 11:02:05;;;;;;;4.13;3.72;;;;;;;22.47;66.42;99307.94;4987934;28;20741;-65
2023/04/22 11:04:30;;;;;;;4.43;3.65;;;;;;;22.46;62.37;99313.38;5024119;28;20198;-65
2023/04/22 11:07:29;;;;;;;4.13;3.63;;;;;;;21.55;56.58;99316.72;5020631;28;20182;-67
2023/04/22 11:10:09;;;;;;;3.67;3.30;;;;;;;21.57;59.74;99312.16;5013633;28;20179;-66
2023/04/22 11:12:34;;;;;;;3.53;3.17;;;;;;;21.91;63.26;99311.72;5003088;28;20312;-67
2023/04/22 11:15:00;;;;;;;4.23;3.60;;;;;;;22.09;62.22;99306.16;5012944;28;20289;-67
2023/04/22 11:17:26;;;;;;;5.33;3.60;;;;;;;21.92;59.66;99307.31;4995782;28;20325;-68
2023/04/22 11:19:55;;;;;;;6.87;3.70;;;;;;;21.66;58.12;99308.50;4996338;28;20292;-66
2023/04/22 11:22:25;;;;;;;3.53;3.10;;;;;;;21.69;61.47;99304.72;5032260;28;20233;-68
2023/04/22 11:24:59;;;;;;;4.73;3.70;;;;;;;21.88;59.81;99300.78;5016268;28;20201;-64
2023/04/22 11:27:25;;;;;;;4.13;3.30;;;;;;;22.08;63.09;99301.91;5021956;28;20248;-65